KSTS

Charles M Schulz - Sonoma County Airport

Santa Rosa, California, USA
METAR KSTS 230853Z AUTO 35005KT 6SM BR OVC018 09/08 A2999 RMK AO2 SLP148 T00890083 53006
Observed Flight Rules
Oct-23 @ 08:53 UTC (47 minutes ago) Marginal Visual Flight Rules
Wind Visibility Clouds Conditions
350° at 5 knots 6 miles
  • Overcast at 1,800' AGL
  • Mist
Temperatures Readings
Current 9°C / 48°F
Dewpoint 8°C / 46°F
Humidity 94%
Altimeter 29.99" Hg
Pressure 1014.8 hPa
Elevation 39
METAR KSTS 230853Z AUTO 35005KT 6SM BR OVC018 09/08 A2999 RMK AO2 SLP148 T00890083 53006
Observed Flight Rules
Oct-23 @ 08:53 UTC
(47 minutes ago)
MVFR
Wind Visibility
350° at 5 knots 6 miles
Clouds
  • Overcast at 1,800' AGL
Conditions
  • Mist
Temperature Dewpoint
9°C / 48°F 8°C / 46°F
Humidity Altimeter Pressure
94% 29.99" Hg 1014.8 hPa